sensor_id;sensor_type;location;lat;lon;timestamp;temperature;humidity
8109;DHT22;4097;47.812;12.374;2022-10-16T00:01:16;14.00;99.90
8109;DHT22;4097;47.812;12.374;2022-10-16T00:03:44;14.00;99.90
8109;DHT22;4097;47.812;12.374;2022-10-16T00:06:12;14.00;99.90
8109;DHT22;4097;47.812;12.374;2022-10-16T00:08:40;14.00;99.90
8109;DHT22;4097;47.812;12.374;2022-10-16T00:11:08;13.90;99.90
8109;DHT22;4097;47.812;12.374;2022-10-16T00:13:39;13.90;99.90
8109;DHT22;4097;47.812;12.374;2022-10-16T00:16:06;13.90;99.90
8109;DHT22;4097;47.812;12.374;2022-10-16T00:18:33;13.80;99.90
8109;DHT22;4097;47.812;12.374;2022-10-16T00:21:04;13.70;99.90
8109;DHT22;4097;47.812;12.374;2022-10-16T00:23:31;13.70;99.90
8109;DHT22;4097;47.812;12.374;2022-10-16T00:25:59;13.60;99.90
8109;DHT22;4097;47.812;12.374;2022-10-16T00:28:27;13.60;99.90
8109;DHT22;4097;47.812;12.374;2022-10-16T00:30:55;13.60;99.90
8109;DHT22;4097;47.812;12.374;2022-10-16T00:33:23;13.60;99.90
8109;DHT22;4097;47.812;12.374;2022-10-16T00:35:50;13.60;99.90
8109;DHT22;4097;47.812;12.374;2022-10-16T00:38:17;13.70;99.90
8109;DHT22;4097;47.812;12.374;2022-10-16T00:40:44;13.60;99.90
8109;DHT22;4097;47.812;12.374;2022-10-16T00:43:31;13.60;99.90
8109;DHT22;4097;47.812;12.374;2022-10-16T00:46:00;13.70;99.90
8109;DHT22;4097;47.812;12.374;2022-10-16T00:48:28;13.70;99.90
8109;DHT22;4097;47.812;12.374;2022-10-16T00:50:56;13.60;99.90
8109;DHT22;4097;47.812;12.374;2022-10-16T00:53:23;13.60;99.90
8109;DHT22;4097;47.812;12.374;2022-10-16T00:55:51;13.60;99.90
8109;DHT22;4097;47.812;12.374;2022-10-16T00:58:18;13.60;99.90
8109;DHT22;4097;47.812;12.374;2022-10-16T01:00:46;13.60;99.90
8109;DHT22;4097;47.812;12.374;2022-10-16T01:03:26;13.60;99.90
8109;DHT22;4097;47.812;12.374;2022-10-16T01:06:03;13.40;99.90
8109;DHT22;4097;47.812;12.374;2022-10-16T01:08:38;13.40;99.90
8109;DHT22;4097;47.812;12.374;2022-10-16T01:11:14;13.40;99.90
8109;DHT22;4097;47.812;12.374;2022-10-16T01:13:47;13.40;99.90
8109;DHT22;4097;47.812;12.374;2022-10-16T01:16:22;13.50;99.90
8109;DHT22;4097;47.812;12.374;2022-10-16T01:18:56;13.40;99.90
8109;DHT22;4097;47.812;12.374;2022-10-16T01:21:27;13.40;99.90
8109;DHT22;4097;47.812;12.374;2022-10-16T01:24:02;13.40;99.90
8109;DHT22;4097;47.812;12.374;2022-10-16T01:26:36;13.40;99.90
8109;DHT22;4097;47.812;12.374;2022-10-16T01:29:12;13.40;99.90
8109;DHT22;4097;47.812;12.374;2022-10-16T01:31:47;13.40;99.90
8109;DHT22;4097;47.812;12.374;2022-10-16T01:34:17;13.40;99.90
8109;DHT22;4097;47.812;12.374;2022-10-16T01:36:47;13.40;99.90
8109;DHT22;4097;47.812;12.374;2022-10-16T01:39:20;13.40;99.90
8109;DHT22;4097;47.812;12.374;2022-10-16T01:41:53;13.30;99.90
8109;DHT22;4097;47.812;12.374;2022-10-16T01:44:26;13.20;99.90
8109;DHT22;4097;47.812;12.374;2022-10-16T01:46:54;13.20;99.90
8109;DHT22;4097;47.812;12.374;2022-10-16T01:49:23;13.20;99.90
8109;DHT22;4097;47.812;12.374;2022-10-16T01:51:55;13.20;99.90
8109;DHT22;4097;47.812;12.374;2022-10-16T01:54:25;13.20;99.90
8109;DHT22;4097;47.812;12.374;2022-10-16T01:56:54;13.30;99.90
8109;DHT22;4097;47.812;12.374;2022-10-16T01:59:25;13.10;99.90
8109;DHT22;4097;47.812;12.374;2022-10-16T02:01:55;13.10;99.90
8109;DHT22;4097;47.812;12.374;2022-10-16T02:04:26;13.20;99.90
8109;DHT22;4097;47.812;12.374;2022-10-16T02:06:54;13.30;99.90
8109;DHT22;4097;47.812;12.374;2022-10-16T02:09:22;13.20;99.90
8109;DHT22;4097;47.812;12.374;2022-10-16T02:11:51;13.20;99.90
8109;DHT22;4097;47.812;12.374;2022-10-16T02:14:19;13.10;99.90
8109;DHT22;4097;47.812;12.374;2022-10-16T02:16:48;13.10;99.90
8109;DHT22;4097;47.812;12.374;2022-10-16T02:19:17;13.10;99.90
8109;DHT22;4097;47.812;12.374;2022-10-16T02:21:50;13.20;99.90
8109;DHT22;4097;47.812;12.374;2022-10-16T02:24:21;13.20;99.90
8109;DHT22;4097;47.812;12.374;2022-10-16T02:26:56;13.20;99.90
8109;DHT22;4097;47.812;12.374;2022-10-16T02:29:26;13.20;99.90
8109;DHT22;4097;47.812;12.374;2022-10-16T02:31:58;13.10;99.90
8109;DHT22;4097;47.812;12.374;2022-10-16T02:34:27;13.10;99.90
8109;DHT22;4097;47.812;12.374;2022-10-16T02:36:57;13.10;99.90
8109;DHT22;4097;47.812;12.374;2022-10-16T02:39:26;13.10;99.90
8109;DHT22;4097;47.812;12.374;2022-10-16T02:41:53;13.10;99.90
8109;DHT22;4097;47.812;12.374;2022-10-16T02:44:20;13.20;99.90
8109;DHT22;4097;47.812;12.374;2022-10-16T02:46:47;13.10;99.90
8109;DHT22;4097;47.812;12.374;2022-10-16T02:49:16;13.10;99.90
8109;DHT22;4097;47.812;12.374;2022-10-16T02:51:43;13.00;99.90
8109;DHT22;4097;47.812;12.374;2022-10-16T02:54:10;13.00;99.90
8109;DHT22;4097;47.812;12.374;2022-10-16T02:56:37;13.00;99.90
8109;DHT22;4097;47.812;12.374;2022-10-16T02:59:04;12.90;99.90
8109;DHT22;4097;47.812;12.374;2022-10-16T03:01:31;12.90;99.90
8109;DHT22;4097;47.812;12.374;2022-10-16T03:03:58;12.90;99.90
8109;DHT22;4097;47.812;12.374;2022-10-16T03:06:26;13.00;99.90
8109;DHT22;4097;47.812;12.374;2022-10-16T03:08:53;12.90;99.90
8109;DHT22;4097;47.812;12.374;2022-10-16T03:11:20;13.00;99.90
8109;DHT22;4097;47.812;12.374;2022-10-16T03:13:47;13.00;99.90
8109;DHT22;4097;47.812;12.374;2022-10-16T03:16:14;13.00;99.90
8109;DHT22;4097;47.812;12.374;2022-10-16T03:18:41;13.00;99.90
8109;DHT22;4097;47.812;12.374;2022-10-16T03:21:08;13.00;99.90
8109;DHT22;4097;47.812;12.374;2022-10-16T03:23:36;13.00;99.90
8109;DHT22;4097;47.812;12.374;2022-10-16T03:26:03;13.00;99.90
8109;DHT22;4097;47.812;12.374;2022-10-16T03:28:30;13.00;99.90
8109;DHT22;4097;47.812;12.374;2022-10-16T03:30:57;13.00;99.90
8109;DHT22;4097;47.812;12.374;2022-10-16T03:33:24;13.00;99.90
8109;DHT22;4097;47.812;12.374;2022-10-16T03:35:51;13.00;99.90
8109;DHT22;4097;47.812;12.374;2022-10-16T03:38:20;13.00;99.90
8109;DHT22;4097;47.812;12.374;2022-10-16T03:40:48;13.00;99.90
8109;DHT22;4097;47.812;12.374;2022-10-16T03:43:15;13.00;99.90
8109;DHT22;4097;47.812;12.374;2022-10-16T03:45:45;13.00;99.90
8109;DHT22;4097;47.812;12.374;2022-10-16T03:48:12;13.00;99.90
8109;DHT22;4097;47.812;12.374;2022-10-16T03:50:38;13.00;99.90
8109;DHT22;4097;47.812;12.374;2022-10-16T03:53:06;13.00;99.90
8109;DHT22;4097;47.812;12.374;2022-10-16T03:55:32;12.90;99.90
8109;DHT22;4097;47.812;12.374;2022-10-16T03:58:01;13.00;99.90
8109;DHT22;4097;47.812;12.374;2022-10-16T04:00:29;13.00;99.90
8109;DHT22;4097;47.812;12.374;2022-10-16T04:02:55;13.00;99.90
8109;DHT22;4097;47.812;12.374;2022-10-16T04:05:22;13.00;99.90
8109;DHT22;4097;47.812;12.374;2022-10-16T04:07:49;13.00;99.90
8109;DHT22;4097;47.812;12.374;2022-10-16T04:10:16;12.90;99.90
8109;DHT22;4097;47.812;12.374;2022-10-16T04:12:43;12.90;99.90
8109;DHT22;4097;47.812;12.374;2022-10-16T04:15:11;12.90;99.90
8109;DHT22;4097;47.812;12.374;2022-10-16T04:17:38;12.90;99.90
8109;DHT22;4097;47.812;12.374;2022-10-16T04:20:06;12.90;99.90
8109;DHT22;4097;47.812;12.374;2022-10-16T04:22:33;12.90;99.90
8109;DHT22;4097;47.812;12.374;2022-10-16T04:25:00;12.90;99.90
8109;DHT22;4097;47.812;12.374;2022-10-16T04:27:27;12.90;99.90
8109;DHT22;4097;47.812;12.374;2022-10-16T04:29:56;12.90;99.90
8109;DHT22;4097;47.812;12.374;2022-10-16T04:32:25;12.80;99.90
8109;DHT22;4097;47.812;12.374;2022-10-16T04:34:52;12.70;99.90
8109;DHT22;4097;47.812;12.374;2022-10-16T04:37:23;12.70;99.90
8109;DHT22;4097;47.812;12.374;2022-10-16T04:39:50;12.70;99.90
8109;DHT22;4097;47.812;12.374;2022-10-16T04:42:17;12.70;99.90
8109;DHT22;4097;47.812;12.374;2022-10-16T04:44:44;12.70;99.90
8109;DHT22;4097;47.812;12.374;2022-10-16T04:47:11;12.60;99.90
8109;DHT22;4097;47.812;12.374;2022-10-16T04:49:39;12.60;99.90
8109;DHT22;4097;47.812;12.374;2022-10-16T04:52:06;12.60;99.90
8109;DHT22;4097;47.812;12.374;2022-10-16T04:54:34;12.50;99.90
8109;DHT22;4097;47.812;12.374;2022-10-16T04:57:01;12.50;99.90
8109;DHT22;4097;47.812;12.374;2022-10-16T04:59:28;12.50;99.90
8109;DHT22;4097;47.812;12.374;2022-10-16T05:01:55;12.40;99.90
8109;DHT22;4097;47.812;12.374;2022-10-16T05:04:21;12.40;99.90
8109;DHT22;4097;47.812;12.374;2022-10-16T05:06:50;12.40;99.90
8109;DHT22;4097;47.812;12.374;2022-10-16T05:09:17;12.40;99.90
8109;DHT22;4097;47.812;12.374;2022-10-16T05:11:44;12.30;99.90
8109;DHT22;4097;47.812;12.374;2022-10-16T05:14:11;12.30;99.90
8109;DHT22;4097;47.812;12.374;2022-10-16T05:16:38;12.30;99.90
8109;DHT22;4097;47.812;12.374;2022-10-16T05:19:05;12.30;99.90
8109;DHT22;4097;47.812;12.374;2022-10-16T05:21:32;12.30;99.90
8109;DHT22;4097;47.812;12.374;2022-10-16T05:24:00;12.30;99.90
8109;DHT22;4097;47.812;12.374;2022-10-16T05:26:27;12.30;99.90
8109;DHT22;4097;47.812;12.374;2022-10-16T05:28:54;12.30;99.90
8109;DHT22;4097;47.812;12.374;2022-10-16T05:31:21;12.20;99.90
8109;DHT22;4097;47.812;12.374;2022-10-16T05:33:47;12.30;99.90
8109;DHT22;4097;47.812;12.374;2022-10-16T05:36:14;12.30;99.90
8109;DHT22;4097;47.812;12.374;2022-10-16T05:38:41;12.40;99.90
8109;DHT22;4097;47.812;12.374;2022-10-16T05:41:10;12.40;99.90
8109;DHT22;4097;47.812;12.374;2022-10-16T05:43:36;12.40;99.90
8109;DHT22;4097;47.812;12.374;2022-10-16T05:46:05;12.40;99.90
8109;DHT22;4097;47.812;12.374;2022-10-16T05:48:33;12.40;99.90
8109;DHT22;4097;47.812;12.374;2022-10-16T05:51:01;12.40;99.90
8109;DHT22;4097;47.812;12.374;2022-10-16T05:53:29;12.40;99.90
8109;DHT22;4097;47.812;12.374;2022-10-16T05:55:57;12.40;99.90
8109;DHT22;4097;47.812;12.374;2022-10-16T05:58:28;12.40;99.90
8109;DHT22;4097;47.812;12.374;2022-10-16T06:00:55;12.40;99.90
8109;DHT22;4097;47.812;12.374;2022-10-16T06:03:25;12.40;99.90
8109;DHT22;4097;47.812;12.374;2022-10-16T06:05:53;12.40;99.90
8109;DHT22;4097;47.812;12.374;2022-10-16T06:08:21;12.50;99.90
8109;DHT22;4097;47.812;12.374;2022-10-16T06:10:48;12.50;99.90
8109;DHT22;4097;47.812;12.374;2022-10-16T06:13:15;12.60;99.90
8109;DHT22;4097;47.812;12.374;2022-10-16T06:15:44;12.60;99.90
8109;DHT22;4097;47.812;12.374;2022-10-16T06:18:11;12.60;99.90
8109;DHT22;4097;47.812;12.374;2022-10-16T06:20:38;12.70;99.90
8109;DHT22;4097;47.812;12.374;2022-10-16T06:23:06;12.80;99.90
8109;DHT22;4097;47.812;12.374;2022-10-16T06:25:32;12.90;99.90
8109;DHT22;4097;47.812;12.374;2022-10-16T06:27:59;12.90;99.90
8109;DHT22;4097;47.812;12.374;2022-10-16T06:30:26;13.00;99.90
8109;DHT22;4097;47.812;12.374;2022-10-16T06:32:54;13.10;99.90
8109;DHT22;4097;47.812;12.374;2022-10-16T06:35:21;13.20;99.90
8109;DHT22;4097;47.812;12.374;2022-10-16T06:37:49;13.20;99.90
8109;DHT22;4097;47.812;12.374;2022-10-16T06:40:16;13.30;99.90
8109;DHT22;4097;47.812;12.374;2022-10-16T06:42:43;13.40;99.90
8109;DHT22;4097;47.812;12.374;2022-10-16T06:45:10;13.50;99.90
8109;DHT22;4097;47.812;12.374;2022-10-16T06:47:38;13.50;99.90
8109;DHT22;4097;47.812;12.374;2022-10-16T06:50:07;13.50;99.90
8109;DHT22;4097;47.812;12.374;2022-10-16T06:52:34;13.50;99.90
8109;DHT22;4097;47.812;12.374;2022-10-16T06:55:01;13.60;99.90
8109;DHT22;4097;47.812;12.374;2022-10-16T06:57:29;13.70;99.90
8109;DHT22;4097;47.812;12.374;2022-10-16T06:59:57;13.70;99.90
8109;DHT22;4097;47.812;12.374;2022-10-16T07:02:24;13.70;99.90
8109;DHT22;4097;47.812;12.374;2022-10-16T07:04:50;13.80;99.90
8109;DHT22;4097;47.812;12.374;2022-10-16T07:07:19;13.80;99.90
8109;DHT22;4097;47.812;12.374;2022-10-16T07:09:46;13.90;99.90
8109;DHT22;4097;47.812;12.374;2022-10-16T07:12:13;14.00;99.90
8109;DHT22;4097;47.812;12.374;2022-10-16T07:14:40;14.00;99.90
8109;DHT22;4097;47.812;12.374;2022-10-16T07:17:06;14.00;99.90
8109;DHT22;4097;47.812;12.374;2022-10-16T07:19:33;14.10;99.90
8109;DHT22;4097;47.812;12.374;2022-10-16T07:22:01;14.30;99.90
8109;DHT22;4097;47.812;12.374;2022-10-16T07:24:29;14.40;99.90
8109;DHT22;4097;47.812;12.374;2022-10-16T07:26:56;14.50;99.90
8109;DHT22;4097;47.812;12.374;2022-10-16T07:29:23;14.60;99.90
8109;DHT22;4097;47.812;12.374;2022-10-16T07:31:50;14.70;99.90
8109;DHT22;4097;47.812;12.374;2022-10-16T07:34:18;14.80;99.90
8109;DHT22;4097;47.812;12.374;2022-10-16T07:36:48;14.90;99.90
8109;DHT22;4097;47.812;12.374;2022-10-16T07:39:15;14.90;99.90
8109;DHT22;4097;47.812;12.374;2022-10-16T07:41:45;15.00;99.90
8109;DHT22;4097;47.812;12.374;2022-10-16T07:44:12;15.10;99.90
8109;DHT22;4097;47.812;12.374;2022-10-16T07:46:39;15.30;99.90
8109;DHT22;4097;47.812;12.374;2022-10-16T07:49:06;15.30;99.90
8109;DHT22;4097;47.812;12.374;2022-10-16T07:51:33;15.50;99.90
8109;DHT22;4097;47.812;12.374;2022-10-16T07:54:00;15.60;99.90
8109;DHT22;4097;47.812;12.374;2022-10-16T07:56:27;15.70;99.90
8109;DHT22;4097;47.812;12.374;2022-10-16T07:58:55;15.80;99.90
8109;DHT22;4097;47.812;12.374;2022-10-16T08:01:22;15.90;99.90
8109;DHT22;4097;47.812;12.374;2022-10-16T08:03:50;16.00;99.90
8109;DHT22;4097;47.812;12.374;2022-10-16T08:06:19;16.10;99.90
8109;DHT22;4097;47.812;12.374;2022-10-16T08:08:46;16.10;99.90
8109;DHT22;4097;47.812;12.374;2022-10-16T08:11:13;16.20;99.90
8109;DHT22;4097;47.812;12.374;2022-10-16T08:13:40;16.30;99.90
8109;DHT22;4097;47.812;12.374;2022-10-16T08:16:08;16.40;99.90
8109;DHT22;4097;47.812;12.374;2022-10-16T08:18:36;16.50;99.90
8109;DHT22;4097;47.812;12.374;2022-10-16T08:21:04;16.50;99.90
8109;DHT22;4097;47.812;12.374;2022-10-16T08:23:32;16.70;99.90
8109;DHT22;4097;47.812;12.374;2022-10-16T08:26:03;16.80;99.90
8109;DHT22;4097;47.812;12.374;2022-10-16T08:28:30;16.90;99.90
8109;DHT22;4097;47.812;12.374;2022-10-16T08:31:05;17.00;99.90
8109;DHT22;4097;47.812;12.374;2022-10-16T08:33:33;17.10;99.90
8109;DHT22;4097;47.812;12.374;2022-10-16T08:36:01;17.20;99.90
8109;DHT22;4097;47.812;12.374;2022-10-16T08:38:28;17.20;99.90
8109;DHT22;4097;47.812;12.374;2022-10-16T08:41:09;17.30;99.90
8109;DHT22;4097;47.812;12.374;2022-10-16T08:43:59;17.40;99.90
8109;DHT22;4097;47.812;12.374;2022-10-16T08:46:37;17.40;99.90
8109;DHT22;4097;47.812;12.374;2022-10-16T08:49:10;17.60;99.90
8109;DHT22;4097;47.812;12.374;2022-10-16T08:51:38;17.70;99.90
8109;DHT22;4097;47.812;12.374;2022-10-16T08:54:21;17.70;99.90
8109;DHT22;4097;47.812;12.374;2022-10-16T08:56:49;17.80;99.90
8109;DHT22;4097;47.812;12.374;2022-10-16T08:59:16;17.90;99.90
8109;DHT22;4097;47.812;12.374;2022-10-16T09:01:46;17.90;99.90
8109;DHT22;4097;47.812;12.374;2022-10-16T09:04:48;18.00;99.90
8109;DHT22;4097;47.812;12.374;2022-10-16T09:07:21;18.00;99.90
8109;DHT22;4097;47.812;12.374;2022-10-16T09:10:05;18.10;99.90
8109;DHT22;4097;47.812;12.374;2022-10-16T09:12:39;18.20;99.90
8109;DHT22;4097;47.812;12.374;2022-10-16T09:15:20;18.20;99.90
8109;DHT22;4097;47.812;12.374;2022-10-16T09:17:53;18.20;99.90
8109;DHT22;4097;47.812;12.374;2022-10-16T09:20:33;18.30;99.90
8109;DHT22;4097;47.812;12.374;2022-10-16T09:23:14;18.40;99.90
8109;DHT22;4097;47.812;12.374;2022-10-16T09:25:44;18.40;99.90
8109;DHT22;4097;47.812;12.374;2022-10-16T09:28:11;18.50;99.90
8109;DHT22;4097;47.812;12.374;2022-10-16T09:30:38;18.50;99.90
8109;DHT22;4097;47.812;12.374;2022-10-16T09:33:08;18.60;99.90
8109;DHT22;4097;47.812;12.374;2022-10-16T09:35:39;18.70;99.90
8109;DHT22;4097;47.812;12.374;2022-10-16T09:38:07;18.80;99.90
8109;DHT22;4097;47.812;12.374;2022-10-16T09:40:37;18.80;99.90
8109;DHT22;4097;47.812;12.374;2022-10-16T09:43:21;18.90;99.90
8109;DHT22;4097;47.812;12.374;2022-10-16T09:45:59;18.90;99.90
8109;DHT22;4097;47.812;12.374;2022-10-16T09:48:30;19.00;99.90
8109;DHT22;4097;47.812;12.374;2022-10-16T09:51:01;19.10;99.90
8109;DHT22;4097;47.812;12.374;2022-10-16T09:53:39;19.10;99.90
8109;DHT22;4097;47.812;12.374;2022-10-16T09:56:07;19.10;99.90
8109;DHT22;4097;47.812;12.374;2022-10-16T09:58:34;19.20;99.90
8109;DHT22;4097;47.812;12.374;2022-10-16T10:01:01;19.30;99.90
8109;DHT22;4097;47.812;12.374;2022-10-16T10:03:37;19.40;99.90
8109;DHT22;4097;47.812;12.374;2022-10-16T10:06:20;19.50;99.90
8109;DHT22;4097;47.812;12.374;2022-10-16T10:08:59;19.50;99.90
8109;DHT22;4097;47.812;12.374;2022-10-16T10:11:41;19.60;99.90
8109;DHT22;4097;47.812;12.374;2022-10-16T10:14:16;19.70;99.90
8109;DHT22;4097;47.812;12.374;2022-10-16T10:16:43;19.70;99.90
8109;DHT22;4097;47.812;12.374;2022-10-16T10:19:15;19.80;99.90
8109;DHT22;4097;47.812;12.374;2022-10-16T10:21:43;19.80;99.90
8109;DHT22;4097;47.812;12.374;2022-10-16T10:24:11;19.90;99.90
8109;DHT22;4097;47.812;12.374;2022-10-16T10:26:44;19.90;99.90
8109;DHT22;4097;47.812;12.374;2022-10-16T10:29:17;20.00;99.90
8109;DHT22;4097;47.812;12.374;2022-10-16T10:31:49;20.00;99.90
8109;DHT22;4097;47.812;12.374;2022-10-16T10:34:33;20.00;99.90
8109;DHT22;4097;47.812;12.374;2022-10-16T10:37:10;20.10;99.90
8109;DHT22;4097;47.812;12.374;2022-10-16T10:39:45;20.20;99.90
8109;DHT22;4097;47.812;12.374;2022-10-16T10:42:21;20.20;99.90
8109;DHT22;4097;47.812;12.374;2022-10-16T10:44:59;20.30;99.90
8109;DHT22;4097;47.812;12.374;2022-10-16T10:47:38;20.30;99.90
8109;DHT22;4097;47.812;12.374;2022-10-16T10:50:14;20.40;99.90
8109;DHT22;4097;47.812;12.374;2022-10-16T10:52:53;20.40;99.90
8109;DHT22;4097;47.812;12.374;2022-10-16T10:55:31;20.50;99.90
8109;DHT22;4097;47.812;12.374;2022-10-16T10:58:32;20.50;99.90
8109;DHT22;4097;47.812;12.374;2022-10-16T11:01:06;20.70;99.90
8109;DHT22;4097;47.812;12.374;2022-10-16T11:03:46;20.70;99.90
8109;DHT22;4097;47.812;12.374;2022-10-16T11:06:19;20.90;99.90
8109;DHT22;4097;47.812;12.374;2022-10-16T11:08:53;20.90;99.90
8109;DHT22;4097;47.812;12.374;2022-10-16T11:11:25;21.00;99.90
8109;DHT22;4097;47.812;12.374;2022-10-16T11:13:58;21.00;99.90
8109;DHT22;4097;47.812;12.374;2022-10-16T11:16:30;21.00;99.90
8109;DHT22;4097;47.812;12.374;2022-10-16T11:19:02;21.00;99.90
8109;DHT22;4097;47.812;12.374;2022-10-16T11:21:39;21.00;99.90
8109;DHT22;4097;47.812;12.374;2022-10-16T11:24:16;21.00;99.90
8109;DHT22;4097;47.812;12.374;2022-10-16T11:26:46;21.00;99.90
8109;DHT22;4097;47.812;12.374;2022-10-16T11:29:19;21.00;99.90
8109;DHT22;4097;47.812;12.374;2022-10-16T11:31:51;21.10;99.90
8109;DHT22;4097;47.812;12.374;2022-10-16T11:34:24;21.20;99.90
8109;DHT22;4097;47.812;12.374;2022-10-16T11:36:57;21.20;99.90
8109;DHT22;4097;47.812;12.374;2022-10-16T11:39:28;21.30;99.90
8109;DHT22;4097;47.812;12.374;2022-10-16T11:41:59;21.20;99.90
8109;DHT22;4097;47.812;12.374;2022-10-16T11:44:42;21.20;99.90
8109;DHT22;4097;47.812;12.374;2022-10-16T11:47:23;21.30;99.90
8109;DHT22;4097;47.812;12.374;2022-10-16T11:49:55;21.40;99.90
8109;DHT22;4097;47.812;12.374;2022-10-16T11:52:30;21.40;99.90
8109;DHT22;4097;47.812;12.374;2022-10-16T11:55:02;21.40;99.90
8109;DHT22;4097;47.812;12.374;2022-10-16T11:57:33;21.50;99.90
8109;DHT22;4097;47.812;12.374;2022-10-16T12:00:06;21.50;99.90
8109;DHT22;4097;47.812;12.374;2022-10-16T12:02:48;21.50;99.90
8109;DHT22;4097;47.812;12.374;2022-10-16T12:05:27;21.60;99.90
8109;DHT22;4097;47.812;12.374;2022-10-16T12:08:05;21.50;99.90
8109;DHT22;4097;47.812;12.374;2022-10-16T12:10:35;21.60;99.90
8109;DHT22;4097;47.812;12.374;2022-10-16T12:13:04;21.60;99.90
8109;DHT22;4097;47.812;12.374;2022-10-16T12:15:33;21.70;99.90
8109;DHT22;4097;47.812;12.374;2022-10-16T12:18:00;21.80;99.90
8109;DHT22;4097;47.812;12.374;2022-10-16T12:20:30;21.80;99.40
8109;DHT22;4097;47.812;12.374;2022-10-16T12:22:59;21.80;99.40
8109;DHT22;4097;47.812;12.374;2022-10-16T12:25:29;21.80;99.90
8109;DHT22;4097;47.812;12.374;2022-10-16T12:28:00;21.80;99.60
8109;DHT22;4097;47.812;12.374;2022-10-16T12:30:30;21.80;99.60
8109;DHT22;4097;47.812;12.374;2022-10-16T12:32:59;21.80;99.50
8109;DHT22;4097;47.812;12.374;2022-10-16T12:35:30;21.80;99.30
8109;DHT22;4097;47.812;12.374;2022-10-16T12:38:08;21.90;99.20
8109;DHT22;4097;47.812;12.374;2022-10-16T12:40:39;22.00;99.20
8109;DHT22;4097;47.812;12.374;2022-10-16T12:43:26;22.00;98.50
8109;DHT22;4097;47.812;12.374;2022-10-16T12:46:05;21.90;99.10
8109;DHT22;4097;47.812;12.374;2022-10-16T12:48:46;22.00;98.50
8109;DHT22;4097;47.812;12.374;2022-10-16T12:51:22;22.00;98.70
8109;DHT22;4097;47.812;12.374;2022-10-16T12:53:58;22.00;98.40
8109;DHT22;4097;47.812;12.374;2022-10-16T12:56:33;22.00;97.60
8109;DHT22;4097;47.812;12.374;2022-10-16T12:59:12;22.10;97.70
8109;DHT22;4097;47.812;12.374;2022-10-16T13:01:56;22.10;97.20
8109;DHT22;4097;47.812;12.374;2022-10-16T13:04:45;22.20;96.70
8109;DHT22;4097;47.812;12.374;2022-10-16T13:07:29;22.10;95.90
8109;DHT22;4097;47.812;12.374;2022-10-16T13:10:06;22.10;96.20
8109;DHT22;4097;47.812;12.374;2022-10-16T13:12:51;22.20;96.00
8109;DHT22;4097;47.812;12.374;2022-10-16T13:15:34;22.20;96.10
8109;DHT22;4097;47.812;12.374;2022-10-16T13:18:09;22.30;96.50
8109;DHT22;4097;47.812;12.374;2022-10-16T13:20:52;22.30;97.20
8109;DHT22;4097;47.812;12.374;2022-10-16T13:23:27;22.40;96.60
8109;DHT22;4097;47.812;12.374;2022-10-16T13:26:05;22.40;96.10
8109;DHT22;4097;47.812;12.374;2022-10-16T13:28:37;22.40;95.80
8109;DHT22;4097;47.812;12.374;2022-10-16T13:31:13;22.40;94.60
8109;DHT22;4097;47.812;12.374;2022-10-16T13:33:45;22.40;94.50
8109;DHT22;4097;47.812;12.374;2022-10-16T13:36:20;22.50;94.00
8109;DHT22;4097;47.812;12.374;2022-10-16T13:38:47;22.50;94.00
8109;DHT22;4097;47.812;12.374;2022-10-16T13:41:16;22.50;94.60
8109;DHT22;4097;47.812;12.374;2022-10-16T13:43:45;22.60;94.40
8109;DHT22;4097;47.812;12.374;2022-10-16T13:46:16;22.60;94.50
8109;DHT22;4097;47.812;12.374;2022-10-16T13:48:43;22.70;94.50
8109;DHT22;4097;47.812;12.374;2022-10-16T13:51:13;22.70;94.60
8109;DHT22;4097;47.812;12.374;2022-10-16T13:53:41;22.70;94.40
8109;DHT22;4097;47.812;12.374;2022-10-16T13:56:11;22.70;94.60
8109;DHT22;4097;47.812;12.374;2022-10-16T13:58:38;22.70;94.00
8109;DHT22;4097;47.812;12.374;2022-10-16T14:01:17;22.70;94.10
8109;DHT22;4097;47.812;12.374;2022-10-16T14:03:45;22.70;94.30
8109;DHT22;4097;47.812;12.374;2022-10-16T14:06:14;22.70;94.70
8109;DHT22;4097;47.812;12.374;2022-10-16T14:08:44;22.70;95.80
8109;DHT22;4097;47.812;12.374;2022-10-16T14:11:11;22.80;95.90
8109;DHT22;4097;47.812;12.374;2022-10-16T14:13:42;22.80;95.80
8109;DHT22;4097;47.812;12.374;2022-10-16T14:16:15;22.80;95.40
8109;DHT22;4097;47.812;12.374;2022-10-16T14:18:46;22.80;95.80
8109;DHT22;4097;47.812;12.374;2022-10-16T14:21:17;22.80;96.50
8109;DHT22;4097;47.812;12.374;2022-10-16T14:23:45;22.70;96.50
8109;DHT22;4097;47.812;12.374;2022-10-16T14:26:14;22.70;96.60
8109;DHT22;4097;47.812;12.374;2022-10-16T14:28:42;22.70;95.90
8109;DHT22;4097;47.812;12.374;2022-10-16T14:31:27;22.70;95.60
8109;DHT22;4097;47.812;12.374;2022-10-16T14:33:56;22.70;95.90
8109;DHT22;4097;47.812;12.374;2022-10-16T14:36:23;22.70;96.10
8109;DHT22;4097;47.812;12.374;2022-10-16T14:38:59;22.70;96.00
8109;DHT22;4097;47.812;12.374;2022-10-16T14:41:28;22.70;96.10
8109;DHT22;4097;47.812;12.374;2022-10-16T14:44:00;22.60;96.00
8109;DHT22;4097;47.812;12.374;2022-10-16T14:46:31;22.60;96.50
8109;DHT22;4097;47.812;12.374;2022-10-16T14:49:03;22.50;96.60
8109;DHT22;4097;47.812;12.374;2022-10-16T14:51:31;22.50;96.60
8109;DHT22;4097;47.812;12.374;2022-10-16T14:53:58;22.50;96.80
8109;DHT22;4097;47.812;12.374;2022-10-16T14:56:28;22.40;96.30
8109;DHT22;4097;47.812;12.374;2022-10-16T14:58:56;22.30;97.60
8109;DHT22;4097;47.812;12.374;2022-10-16T15:01:23;22.20;97.40
8109;DHT22;4097;47.812;12.374;2022-10-16T15:03:50;22.10;97.80
8109;DHT22;4097;47.812;12.374;2022-10-16T15:06:21;22.00;97.70
8109;DHT22;4097;47.812;12.374;2022-10-16T15:08:48;21.80;98.60
8109;DHT22;4097;47.812;12.374;2022-10-16T15:11:16;21.60;99.00
8109;DHT22;4097;47.812;12.374;2022-10-16T15:13:44;21.50;99.40
8109;DHT22;4097;47.812;12.374;2022-10-16T15:16:13;21.40;99.80
8109;DHT22;4097;47.812;12.374;2022-10-16T15:18:40;21.30;99.80
8109;DHT22;4097;47.812;12.374;2022-10-16T15:21:08;21.10;99.90
8109;DHT22;4097;47.812;12.374;2022-10-16T15:23:37;21.00;99.90
8109;DHT22;4097;47.812;12.374;2022-10-16T15:26:05;20.90;99.90
8109;DHT22;4097;47.812;12.374;2022-10-16T15:28:31;20.70;99.90
8109;DHT22;4097;47.812;12.374;2022-10-16T15:30:58;20.60;99.90
8109;DHT22;4097;47.812;12.374;2022-10-16T15:33:28;20.50;99.90
8109;DHT22;4097;47.812;12.374;2022-10-16T15:35:59;20.40;99.90
8109;DHT22;4097;47.812;12.374;2022-10-16T15:38:27;20.30;99.90
8109;DHT22;4097;47.812;12.374;2022-10-16T15:40:57;20.20;99.90
8109;DHT22;4097;47.812;12.374;2022-10-16T15:43:24;20.10;99.90
8109;DHT22;4097;47.812;12.374;2022-10-16T15:45:59;20.00;99.90
8109;DHT22;4097;47.812;12.374;2022-10-16T15:48:27;19.90;99.90
8109;DHT22;4097;47.812;12.374;2022-10-16T15:50:54;19.80;99.90
8109;DHT22;4097;47.812;12.374;2022-10-16T15:53:21;19.70;99.90
8109;DHT22;4097;47.812;12.374;2022-10-16T15:55:48;19.60;99.90
8109;DHT22;4097;47.812;12.374;2022-10-16T15:58:16;19.60;99.90
8109;DHT22;4097;47.812;12.374;2022-10-16T16:00:44;19.50;99.90
8109;DHT22;4097;47.812;12.374;2022-10-16T16:03:11;19.40;99.90
8109;DHT22;4097;47.812;12.374;2022-10-16T16:05:38;19.30;99.90